This site, now in its 15th season, is a labour of love and fun from one of Ottawa's most avid time trialists and number crunchers. It adheres to and is permitted by the laws of Canada, promotes the objectives of every bicycle club whose results are shown, and is donated free of charge by myself for your enjoyment and usage. If you would like results from series you ride in to be shown here, give me (celia@drmath.ca) a shout!


Index Page
ATT OTT WTT AATT CFCTT VVVTT
Help resultformat:
Case-sensitive

OBC Open TT Series - 2011-Aug-25 - 15km (Rockliffe Pkwy) (EvtFactor = 0.9712)

Ottawa Weather (18:00): Mainly Clear . Temp.: 24.9°C, Humidity: 53%, DewPoint: 14.8°C, Wind: WNW 18km/h gust 32km/h, Pressure: 101.2kPa, Visibility: 24.1km.
Ottawa Weather (19:00): Mainly Clear . Temp.: 24.1°C, Humidity: 56%, DewPoint: 14.7°C, Wind: W 17km/h, Pressure: 101.3kPa, Visibility: 24.1km.
Ottawa Weather (20:00): Mostly Cloudy . Temp.: 23.1°C, Humidity: 59%, DewPoint: 14.7°C, Wind: NW 26km/h, Pressure: 101.3kPa, Visibility: 24.1km.

Send photos with description (when/where/what) of yourself on or off of bike to celia@drmath.ca

ANOTHER NEW COURSE RECORD of 18:04 (49.815km/h) by AARON FILLION!
Also a new MINIME (13-14 years old) MALE COURSE RECORD of 20:50 (43.200km/h) by DEREK GEE!




Gusty winds from the WNW left plenty of excuses for people to ride slowly tonight, but somehow there were some incredible times achieved. Aaron Fillion whittled another 11 seconds off of the course record of 18:15 which he set two weeks ago. Tonight he did a remarkable 18:04 which is 49.815km/h. He indicated that he was working so hard that he felt quite sick to his stomach near the end, but that if he knew that he was so close to the 50km/h time of 18 flat he might have been able to pull out a little bit more to reach that mark! Equally impressive was Derek Gee's 20:50! Derek has only just turned 14 years old, so we can expect some really fast times from him in the future. Looking at personal database improvements, 27 improved and 2 tied their previous database best. Congratulations to Timothy Austen (21:54) for being the most improved with more than a 35% improvement in his cube speed! Also congratulations to Douglas van den Ham for breaking the 19 minute barrier for the first time with his 18:59, good for third place, and Warren MacDonald for his second place finish in 18:46. For the women, kudos to Kelly Knowles (23:01) who was 1st, Dianne Marleau (23:45), and third place Bailin Xie, in the Cadet (15-16 years old) with a new personal best of 23:45.

These results were posted on the OBC site circa 20:00 on 2011-Aug-26 and are available here for your added pleasure and analysis.

(Lest complaints about me just lazily sucking in the results surface, I wish to make it perfectly clear that I would gladly do the data entry, getting the results up within a few of hours of the event, as history shows that I did for the WTT series for the decade beginning in 1998, and for the OTT series from 1999-2002 and again in 2006. The OBC Board however, not only won't let me volunteer here, but strangely enough they actually
expelled me from the OBC for donating this time trial web site to you !)

 
 

BESTS?
 
Y 1 Fillion, Aaron  OBC/RWR 18:04 49.815 1/84 VAM 1/12 1.0307
2 MacDonald, Warren  OBC/NTF 18:46 47.957 2/84 VAM 2/12 0.9683
3 van den Ham, Douglas  OBC/NTF 18:59 47.410 3/84 VAM 3/12 1.0106
4 Rendall, Glen  RWR 19:35 45.957 4/84 VBM 1/21 0.9747
5 Hawkes, Craig CYC 19:48 45.455 5/84 VAM 4/12 0.9577
6 Datars, Paul  OBC/RWR 20:15 44.444 6/84 VCM 1/23 0.9395
7 Dal-Cin, Matteo  JET 20:16 44.408 7/84 SEM 1/2 0.7919
Ferguson, James OBC 20:16 44.408 7/84 VCM 2/23 1.0198
9 Sudac, Rick  OBC/RWR 20:20 44.262 9/84 VDM 1/7 0.9805
10 Munden, David EUR 20:22 44.190 10/84 VBM 2/21 0.9612
11 Tsilemos, Jim RWR 20:23 44.154 11/84 VBM 3/21 0.9976
12 Budgell, Glen  OBC 20:30 43.902 12/84 VCM 3/23 1.0271
Katz, Joel  OBC/RWR 20:30 43.902 12/84 VCM 3/23 1.0622
14 Sugden, David OBC/RDO 20:38 43.619 14/84 VBM 4/21 0.9976
15 Christie, Greg  OBC/RWR 20:41 43.513 15/84 VCM 5/23 1.0417
16 Tregunno, Peter  OBC 20:45 43.373 16/84 VAM 5/12 0.9880
17 Mullington, Chris WQW 20:48 43.269 17/84 VCM 6/23 1.0000
18 Gee, Derek  OBC 20:50 43.200 18/84 MIM 1/2 1.1511
19 Henschel, Peter OBC 21:00 42.857 19/84 VCM 7/23 1.0410
20 Leslie, Brian OBC 21:03 42.755 20/84 VBM 5/21 1.0336
21 Burge, Craig  CYC 21:09 42.553 21/84 VCM 8/23 1.0505
22 Corner, Doug  OBC 21:15 42.353 22/84 VDM 2/7 1.1198
Konov, Sergei OBC 21:15 42.353 22/84 VAM 6/12 1.0357
24 Cameron, Allen & Ingham, Alison OBC/RWR 21:17 42.287 24/84 TTT 1/3  
25 Bilenkey, David OBC/EUR 21:18 42.254 25/84 VBM 6/21 1.1736
26 DeVidi, Robert  OBC 21:31 41.828 26/84 VBM 7/21 0.9769
27 Blais, Bob --- 21:39 41.570 27/84 VCM 9/23 0.9953
28 Lacasse, Jeremie  OBC 21:46 41.348 28/84 CAM 1/2 0.9682
29 Ohuiginn, Liam IND 21:51 41.190 29/84 SEM 2/2 1.0535
30 Austen, Timothy OBC 21:54 41.096 30/84 CAM 2/2  
31 Dorego, Jean-Louis OBC 21:56 41.033 31/84 VDM 3/7 0.9661
32 Armstrong, Brian OBC 22:15 40.449 32/84 VBM 8/21 0.9821
33 Runions, Colin OBC 22:16 40.419 33/84 VBM 9/21 0.9821
34 Martin, David OBC 22:17 40.389 34/84 VBM 10/21 1.1605
35 Hicks, Bob  OBC 22:18 40.359 35/84 VDM 4/7 1.0363
36 Grace, Darrin  EUR 22:30 40.000 36/84 VBM 11/21 1.0543
Skafel, Paul CYC 22:30 40.000 36/84 VAM 7/12 1.0520
38 Giggey, Robert OBC 22:42 39.648 38/84 VAM 8/12 1.0357
39 Charlton, Christopher OBC 22:51 39.387 39/84 VCM 10/23 0.9761
40 Lavoie, Marcel  OBC 22:57 39.216 40/84 VBM 12/21 1.0154
41 Wilkins, Carl  OBC 22:58 39.187 41/84 VAM 9/12 0.9956
42 Knowles, Kelly  CYC 23:01 39.102 42/84 VBF 1/4 0.9763
43 Hiscocks, Mark OBC 23:09 38.877 43/84 VAM 10/12 1.0109
44 Parkinson, Scott OBC 23:15 38.710 44/84 VBM 13/21  
45 Deschamps, Martin WQW 23:19 38.599 45/84 VAM 11/12 1.0065
46 Pehleman, Bob  OBC 23:25 38.434 46/84 VCM 11/23 0.9579
47 Redshaw, Russ  OBC 23:30 38.298 47/84 VCM 12/23 1.0388
48 Burdett, Avery  OBC 23:36 38.136 48/84 VEM 1/1 0.9707
49 Drouin, Marcel OBC 23:42 37.975 49/84 VBM 14/21  
50 McInnis, Celia & Robitaille, Brian OBC/ABC/CYF 23:43 37.948 50/84 TTT 2/3  
51 Marleau, Dianne  OBC/RWR 23:45 37.895 51/84 VBF 2/4 0.9770
Xie, Bailin  OBC 23:45 37.895 51/84 CAF 1/1 1.0799
53 Deavy, Carol  OBC 23:47 37.842 53/84 VBF 3/4 0.9464
54 Baker, Evan OBC 23:53 37.683 54/84 VBM 15/21 1.0105
55 Tomka, Paul  OBC 23:55 37.631 55/84 VBM 16/21 1.0926
56 Pavelich, John OBC 23:56 37.604 56/84 VCM 13/23 0.9608
57 Rivoche, Michael WQW 23:57 37.578 57/84 VCM 14/23 0.9567
58 Czaban, Christina & Déry, Nicolas OBC 24:00 37.500 58/84 TTT 3/3  
59 Austen, Ian  OBC 24:02 37.448 59/84 VCM 15/23 1.0168
60 McTavish, Megan OBC 24:03 37.422 60/84 VAF 1/3 1.0021
61 Hyde, Len OBC 24:04 37.396 61/84 VBM 17/21  
Imbrogno, Giorgio  OBC 24:04 37.396 61/84 VDM 5/7 0.9794
63 Yaeger, Dave  OBC 24:08 37.293 63/84 VCM 16/23 0.8713
64 Appotive, Eric OBC 24:11 37.216 64/84 VCM 17/23 1.0083
Simard, Martin EUR 24:11 37.216 64/84 VCM 17/23 1.0526
66 Hall, David  OBC 24:26 36.835 66/84 VBM 18/21 0.9438
67 Meyer, Lisa  OBC 24:27 36.810 67/84 VCF 1/1 1.0415
68 Jones, Amanda OBC 24:28 36.785 68/84 VAF 2/3 0.9697
69 Phillips, Ron OBC 24:46 36.339 69/84 VDM 6/7 1.5265
70 Georges, Patrick OBC 24:52 36.193 70/84 VBM 19/21 0.8990
71 Shaffer, Gordon --- 24:53 36.169 71/84 VBM 20/21 0.9564
72 Guevremont, Marc OBC 25:04 35.904 72/84 VAM 12/12 1.0652
73 Liechti, Hans-Peter OBC 25:22 35.480 73/84 VCM 19/23 0.9497
74 Desjardins, Marcel --- 25:28 35.340 74/84 VDM 7/7 1.0217
75 Dal-Cin, Mauro OBC 25:30 35.294 75/84 VCM 20/23 1.0138
76 Janusauskas, Vytas  OBC 26:03 34.549 76/84 VCM 21/23 0.9772
77 Ajersch, Mary  OBC 26:08 34.439 77/84 VEF 1/1 0.9867
78 Verheyden, Peter  OBC 26:10 34.395 78/84 VCM 22/23  
79 Sothcott, Stephanie  CYF 26:17 34.242 79/84 SEF 1/1 0.8485
80 Douglas, Mark  OBC 27:11 33.109 80/84 VCM 23/23 1.0055
81 McLaren, Louise  OBC 27:48 32.374 81/84 VBF 4/4 0.9609
82 Boudreau, Nathalie OBC 28:07 32.009 82/84 VAF 3/3 1.0053
83 Xie, Hugh  OBC 28:29 31.597 83/84 MIM 2/2 0.9929
84 Decorme, Stephane --- 29:16 30.752 84/84 VBM 21/21 1.1694
 
Average Speed of all of the above 84 finishes (1260km in 32:11:20):39.144
>>>Average of the Average Speeds for these 84 finishes39.518<<<
 

The number of data records shown above is 84
The server processing of your query took: 2 wallclock secs ( 0.13 usr + 0.06 sys = 0.19 CPU)

Thanks to our Helpers: Byron Johnson, Laura Johnson, Alex McKnight, Jess Raymond, Stephanie Rees, Peter Tregunno.

     


Apr 22 (Good Friday)
May 3 (10km) May 5 May 10 (10km) May 12 May 17 May 17 (10km) May 19 May 24 May 24 (10km) May 26 May 31 May 31 (10km)
Jun 2 Jun 5 (40km) Jun 7 Jun 7 Jun 9 Jun 13 (10km) Jun 14 Jun 14 Jun 16 Jun 21 Jun 21 Jun 23 Jun 27 (10km) Jun 28 (Cancelled - Severe Thunderstorm Warning) Jun 28 (Cancelled - Severe Thunderstorm Warning) Jun 30
Jul 5 Jul 5 Jul 7 Jul 10 (40km) Jul 11 (10km) Jul 12 Jul 12 Jul 14 Jul 16 (18.1km) Jul 19 Jul 19 Jul 21 Jul 24 (40km) Jul 25 Jul 26 Jul 26 Jul 28
Aug 2 Aug 2 Aug 4 Aug 7 (40km) Aug 8 Aug 9 (cancelled - rain) Aug 9 Aug 11 Aug 14 (40km) Aug 15 Aug 16 Aug 16 Aug 18 Aug 23 Aug 23
  Aug 25  
Aug 30 Aug 30 (Invitational)
Sep 1 Sep 6 Sep 8 Sep 11 (40km) Sep 13 Sep 18 (40km) Sep 20 Sep 27

OTT Rankings
Best       Best by category
WTT Rankings for All Participants
5 Best Speeds (≥4 15km, ≤1 10km)     5 Best Speeds (≥4 15km, ≤1 10km) by category
OTT Best Three 15km Rankings
Overall     by category     age-Hcap Female   age-Hcap Male
[OWA]TT BAR Ranking
Overall     by category     Rider "Consistency-Graph"
ABC BAR Ranking
Overall     by category     Rider "Consistency-Graph"
Other years
TT Calculator All TT People All TT events
ABC Home VVV Home
CKAP GOLD MEDAL
Other Links

Note: OTT data from 2003 through 2006-Apr-14 and 2007-Apr-06-? and WTT from 2008-? is taken from the official OBC site.

Please send your comments and suggestions to: Celia McInnis
Copyright © 1998-2011 Celia McInnis. All rights reserved. Links are welcomed.